This is the latest recevied weather packets stored in our database for station/object N3TJJ-2. If no packets are shown the sender has not sent any weather packets the latest 10 day(s).
| Time | Temp. | Humidity | Pressure | Rain* | Wind** | Luminosity | Snow |
|---|---|---|---|---|---|---|---|
| 1777668432 | 17.22° C | 51% | 1011.5 hPa | 0 mm | - | - | - |
| 1777668085 | 17.78° C | 46% | 1011.5 hPa | 0 mm | - | - | - |
| 1777667720 | 17.22° C | 47% | 1011.5 hPa | 0 mm | - | - | - |
| 1777667351 | 17.22° C | 48% | 1011.5 hPa | 0 mm | - | - | - |
| 1777666998 | 17.78° C | 48% | 1011.6 hPa | 0 mm | - | - | - |
| 1777666631 | 18.33° C | 45% | 1011.7 hPa | 0 mm | - | - | - |
| 1777666280 | 18.33° C | 45% | 1011.8 hPa | 0 mm | - | - | - |
| 1777665936 | 17.78° C | 46% | 1012 hPa | 0 mm | - | - | - |
| 1777665719 | 17.78° C | 46% | 1012 hPa | 0 mm | - | - | - |
| 1777665316 | 17.78° C | 47% | 1012 hPa | 0 mm | - | - | - |
| 1777664831 | 18.33° C | 43% | 1012.1 hPa | 0 mm | - | - | - |
| 1777664760 | 18.33° C | 45% | 1012.2 hPa | 0 mm | - | - | - |
| 1777664132 | 17.78° C | 47% | 1012.3 hPa | 0 mm | - | - | - |
| 1777663751 | 17.78° C | 47% | 1012.4 hPa | 0 mm | - | - | - |
| 1777663395 | 17.22° C | 46% | 1012.6 hPa | 0 mm | - | - | - |
| 1777663163 | 17.22° C | 47% | 1012.7 hPa | 0 mm | - | - | - |
| 1777662728 | 17.78° C | 47% | 1012.8 hPa | 0 mm | - | - | - |
| 1777662365 | 17.22° C | 46% | 1012.9 hPa | 0 mm | - | - | - |
| 1777661954 | 16.11° C | 49% | 1012.9 hPa | 0 mm | - | - | - |
| 1777661591 | 16.11° C | 47% | 1013 hPa | 0 mm | - | - | - |
| 1777661256 | 16.11° C | 49% | 1013.2 hPa | 0 mm | - | - | - |
| 1777660889 | 16.11° C | 47% | 1013.4 hPa | 0 mm | - | - | - |
| 1777660629 | 16.11° C | 49% | 1013.3 hPa | 0 mm | - | - | - |
| 1777660151 | 15.56° C | 49% | 1013.4 hPa | 0 mm | - | - | - |
| 1777659792 | 16.11° C | 50% | 1013.4 hPa | 0 mm | - | - | - |
* Rain latest hour (hover to see other rain measurements)
** Current wind speed in m/s (hover to see current wind gust speed)